sensor_id;sensor_type;location;lat;lon;timestamp;P1;durP1;ratioP1;P2;durP2;ratioP2
43042;SDS011;28667;50.758;6.096;2023-09-12T00:01:26;4.30;;;2.33;;
43042;SDS011;28667;50.758;6.096;2023-09-12T00:03:51;2.72;;;2.30;;
43042;SDS011;28667;50.758;6.096;2023-09-12T00:06:17;4.60;;;2.85;;
43042;SDS011;28667;50.758;6.096;2023-09-12T00:08:43;4.38;;;2.75;;
43042;SDS011;28667;50.758;6.096;2023-09-12T00:11:09;2.97;;;2.35;;
43042;SDS011;28667;50.758;6.096;2023-09-12T00:13:39;4.10;;;2.25;;
43042;SDS011;28667;50.758;6.096;2023-09-12T00:16:06;2.35;;;2.15;;
43042;SDS011;28667;50.758;6.096;2023-09-12T00:18:34;2.38;;;1.98;;
43042;SDS011;28667;50.758;6.096;2023-09-12T00:21:00;4.82;;;2.55;;
43042;SDS011;28667;50.758;6.096;2023-09-12T00:23:26;3.30;;;2.38;;
43042;SDS011;28667;50.758;6.096;2023-09-12T00:25:52;3.90;;;2.85;;
43042;SDS011;28667;50.758;6.096;2023-09-12T00:28:21;4.65;;;2.65;;
43042;SDS011;28667;50.758;6.096;2023-09-12T00:30:47;3.03;;;2.65;;
43042;SDS011;28667;50.758;6.096;2023-09-12T00:33:13;3.80;;;2.40;;
43042;SDS011;28667;50.758;6.096;2023-09-12T00:35:39;3.28;;;2.90;;
43042;SDS011;28667;50.758;6.096;2023-09-12T00:38:04;3.13;;;2.47;;
43042;SDS011;28667;50.758;6.096;2023-09-12T00:40:32;4.60;;;2.72;;
43042;SDS011;28667;50.758;6.096;2023-09-12T00:42:58;4.05;;;2.47;;
43042;SDS011;28667;50.758;6.096;2023-09-12T00:45:24;3.22;;;2.40;;
43042;SDS011;28667;50.758;6.096;2023-09-12T00:47:50;2.45;;;2.25;;
43042;SDS011;28667;50.758;6.096;2023-09-12T00:50:17;2.97;;;2.45;;
43042;SDS011;28667;50.758;6.096;2023-09-12T00:52:45;3.25;;;2.40;;
43042;SDS011;28667;50.758;6.096;2023-09-12T00:55:12;4.10;;;2.53;;
43042;SDS011;28667;50.758;6.096;2023-09-12T00:57:39;5.40;;;2.53;;
43042;SDS011;28667;50.758;6.096;2023-09-12T01:00:05;3.03;;;2.05;;
43042;SDS011;28667;50.758;6.096;2023-09-12T01:02:46;2.47;;;2.08;;
43042;SDS011;28667;50.758;6.096;2023-09-12T01:05:13;4.43;;;2.97;;
43042;SDS011;28667;50.758;6.096;2023-09-12T01:07:39;2.83;;;2.35;;
43042;SDS011;28667;50.758;6.096;2023-09-12T01:10:07;2.67;;;2.15;;
43042;SDS011;28667;50.758;6.096;2023-09-12T01:12:34;3.10;;;2.17;;
43042;SDS011;28667;50.758;6.096;2023-09-12T01:14:59;2.45;;;2.20;;
43042;SDS011;28667;50.758;6.096;2023-09-12T01:17:26;5.57;;;2.80;;
43042;SDS011;28667;50.758;6.096;2023-09-12T01:19:52;4.03;;;3.20;;
43042;SDS011;28667;50.758;6.096;2023-09-12T01:27:58;4.22;;;2.85;;
43042;SDS011;28667;50.758;6.096;2023-09-12T01:30:27;3.10;;;2.83;;
43042;SDS011;28667;50.758;6.096;2023-09-12T01:32:56;3.80;;;2.70;;
43042;SDS011;28667;50.758;6.096;2023-09-12T01:35:22;6.10;;;2.85;;
43042;SDS011;28667;50.758;6.096;2023-09-12T01:37:48;2.67;;;2.22;;
43042;SDS011;28667;50.758;6.096;2023-09-12T01:40:14;3.25;;;2.83;;
43042;SDS011;28667;50.758;6.096;2023-09-12T01:42:43;3.53;;;2.50;;
43042;SDS011;28667;50.758;6.096;2023-09-12T01:45:13;3.72;;;2.92;;
43042;SDS011;28667;50.758;6.096;2023-09-12T01:47:41;3.80;;;2.45;;
43042;SDS011;28667;50.758;6.096;2023-09-12T01:50:09;3.05;;;2.75;;
43042;SDS011;28667;50.758;6.096;2023-09-12T01:52:38;3.75;;;2.55;;
43042;SDS011;28667;50.758;6.096;2023-09-12T01:55:05;3.80;;;2.50;;
43042;SDS011;28667;50.758;6.096;2023-09-12T01:57:34;5.95;;;3.03;;
43042;SDS011;28667;50.758;6.096;2023-09-12T02:00:02;6.30;;;2.67;;
43042;SDS011;28667;50.758;6.096;2023-09-12T02:02:30;4.57;;;2.60;;
43042;SDS011;28667;50.758;6.096;2023-09-12T02:07:35;4.10;;;3.25;;
43042;SDS011;28667;50.758;6.096;2023-09-12T02:10:02;4.53;;;3.20;;
43042;SDS011;28667;50.758;6.096;2023-09-12T02:12:29;3.35;;;2.95;;
43042;SDS011;28667;50.758;6.096;2023-09-12T02:14:56;4.45;;;3.25;;
43042;SDS011;28667;50.758;6.096;2023-09-12T02:17:22;3.08;;;2.50;;
43042;SDS011;28667;50.758;6.096;2023-09-12T02:19:48;5.45;;;2.80;;
43042;SDS011;28667;50.758;6.096;2023-09-12T02:22:14;6.10;;;2.75;;
43042;SDS011;28667;50.758;6.096;2023-09-12T02:24:40;4.90;;;2.40;;
43042;SDS011;28667;50.758;6.096;2023-09-12T02:27:05;4.07;;;3.10;;
43042;SDS011;28667;50.758;6.096;2023-09-12T02:29:31;3.80;;;3.00;;
43042;SDS011;28667;50.758;6.096;2023-09-12T02:31:58;3.50;;;2.63;;
43042;SDS011;28667;50.758;6.096;2023-09-12T02:34:23;5.18;;;3.83;;
43042;SDS011;28667;50.758;6.096;2023-09-12T02:36:49;3.38;;;2.80;;
43042;SDS011;28667;50.758;6.096;2023-09-12T02:39:15;10.57;;;4.25;;
43042;SDS011;28667;50.758;6.096;2023-09-12T02:41:41;5.03;;;2.72;;
43042;SDS011;28667;50.758;6.096;2023-09-12T02:44:07;4.88;;;3.10;;
43042;SDS011;28667;50.758;6.096;2023-09-12T02:46:33;3.67;;;2.83;;
43042;SDS011;28667;50.758;6.096;2023-09-12T02:48:59;4.00;;;2.50;;
43042;SDS011;28667;50.758;6.096;2023-09-12T02:51:25;4.63;;;3.42;;
43042;SDS011;28667;50.758;6.096;2023-09-12T02:53:51;4.45;;;3.13;;
43042;SDS011;28667;50.758;6.096;2023-09-12T02:56:17;2.83;;;2.53;;
43042;SDS011;28667;50.758;6.096;2023-09-12T02:58:45;3.67;;;2.80;;
43042;SDS011;28667;50.758;6.096;2023-09-12T03:01:18;5.30;;;3.20;;
43042;SDS011;28667;50.758;6.096;2023-09-12T03:03:45;3.35;;;2.58;;
43042;SDS011;28667;50.758;6.096;2023-09-12T03:06:13;2.95;;;2.35;;
43042;SDS011;28667;50.758;6.096;2023-09-12T03:08:40;4.65;;;3.20;;
43042;SDS011;28667;50.758;6.096;2023-09-12T03:11:06;3.20;;;2.63;;
43042;SDS011;28667;50.758;6.096;2023-09-12T03:13:33;5.53;;;3.30;;
43042;SDS011;28667;50.758;6.096;2023-09-12T03:15:59;3.58;;;3.20;;
43042;SDS011;28667;50.758;6.096;2023-09-12T03:18:26;4.22;;;2.53;;
43042;SDS011;28667;50.758;6.096;2023-09-12T03:20:53;4.57;;;2.92;;
43042;SDS011;28667;50.758;6.096;2023-09-12T03:23:19;4.18;;;3.20;;
43042;SDS011;28667;50.758;6.096;2023-09-12T03:25:45;8.98;;;3.47;;
43042;SDS011;28667;50.758;6.096;2023-09-12T03:28:12;3.88;;;3.22;;
43042;SDS011;28667;50.758;6.096;2023-09-12T03:30:39;3.70;;;2.58;;
43042;SDS011;28667;50.758;6.096;2023-09-12T03:33:05;5.28;;;3.03;;
43042;SDS011;28667;50.758;6.096;2023-09-12T03:35:32;4.32;;;3.05;;
43042;SDS011;28667;50.758;6.096;2023-09-12T03:37:59;3.42;;;2.83;;
43042;SDS011;28667;50.758;6.096;2023-09-12T03:40:27;4.57;;;3.30;;
43042;SDS011;28667;50.758;6.096;2023-09-12T03:42:54;8.45;;;3.22;;
43042;SDS011;28667;50.758;6.096;2023-09-12T03:45:20;6.70;;;3.42;;
43042;SDS011;28667;50.758;6.096;2023-09-12T03:47:46;6.00;;;3.22;;
43042;SDS011;28667;50.758;6.096;2023-09-12T03:50:13;5.75;;;3.28;;
43042;SDS011;28667;50.758;6.096;2023-09-12T03:52:39;4.82;;;2.88;;
43042;SDS011;28667;50.758;6.096;2023-09-12T03:55:05;4.80;;;3.25;;
43042;SDS011;28667;50.758;6.096;2023-09-12T03:57:31;5.82;;;3.20;;
43042;SDS011;28667;50.758;6.096;2023-09-12T03:59:57;4.40;;;2.95;;
43042;SDS011;28667;50.758;6.096;2023-09-12T04:02:23;4.43;;;3.08;;
43042;SDS011;28667;50.758;6.096;2023-09-12T04:04:49;4.40;;;3.45;;
43042;SDS011;28667;50.758;6.096;2023-09-12T04:07:17;5.00;;;4.10;;
43042;SDS011;28667;50.758;6.096;2023-09-12T04:09:42;5.80;;;4.28;;
43042;SDS011;28667;50.758;6.096;2023-09-12T04:12:08;7.10;;;4.60;;
43042;SDS011;28667;50.758;6.096;2023-09-12T04:14:34;7.50;;;3.70;;
43042;SDS011;28667;50.758;6.096;2023-09-12T04:17:01;6.45;;;3.75;;
43042;SDS011;28667;50.758;6.096;2023-09-12T04:19:27;5.53;;;3.95;;
43042;SDS011;28667;50.758;6.096;2023-09-12T04:21:53;7.80;;;4.32;;
43042;SDS011;28667;50.758;6.096;2023-09-12T04:24:18;6.57;;;4.25;;
43042;SDS011;28667;50.758;6.096;2023-09-12T04:26:44;6.07;;;3.67;;
43042;SDS011;28667;50.758;6.096;2023-09-12T04:29:10;5.10;;;3.35;;
43042;SDS011;28667;50.758;6.096;2023-09-12T04:31:36;6.15;;;4.43;;
43042;SDS011;28667;50.758;6.096;2023-09-12T04:34:02;6.03;;;4.55;;
43042;SDS011;28667;50.758;6.096;2023-09-12T04:36:27;4.80;;;3.25;;
43042;SDS011;28667;50.758;6.096;2023-09-12T04:38:53;6.30;;;3.63;;
43042;SDS011;28667;50.758;6.096;2023-09-12T04:41:19;8.82;;;4.57;;
43042;SDS011;28667;50.758;6.096;2023-09-12T04:43:45;6.32;;;4.10;;
43042;SDS011;28667;50.758;6.096;2023-09-12T04:46:12;9.75;;;5.00;;
43042;SDS011;28667;50.758;6.096;2023-09-12T04:48:38;11.82;;;6.63;;
43042;SDS011;28667;50.758;6.096;2023-09-12T04:51:04;8.63;;;5.28;;
43042;SDS011;28667;50.758;6.096;2023-09-12T04:53:30;13.82;;;7.03;;
43042;SDS011;28667;50.758;6.096;2023-09-12T04:56:03;8.13;;;5.80;;
43042;SDS011;28667;50.758;6.096;2023-09-12T04:58:31;12.73;;;7.93;;
43042;SDS011;28667;50.758;6.096;2023-09-12T05:00:57;16.52;;;8.73;;
43042;SDS011;28667;50.758;6.096;2023-09-12T05:03:23;14.75;;;7.43;;
43042;SDS011;28667;50.758;6.096;2023-09-12T05:05:50;14.00;;;6.93;;
43042;SDS011;28667;50.758;6.096;2023-09-12T05:08:17;14.27;;;6.95;;
43042;SDS011;28667;50.758;6.096;2023-09-12T05:10:44;11.70;;;5.93;;
43042;SDS011;28667;50.758;6.096;2023-09-12T05:13:10;17.30;;;7.80;;
43042;SDS011;28667;50.758;6.096;2023-09-12T05:15:37;11.25;;;6.72;;
43042;SDS011;28667;50.758;6.096;2023-09-12T05:18:07;20.05;;;10.02;;
43042;SDS011;28667;50.758;6.096;2023-09-12T05:20:34;19.30;;;9.68;;
43042;SDS011;28667;50.758;6.096;2023-09-12T05:23:00;19.50;;;9.27;;
43042;SDS011;28667;50.758;6.096;2023-09-12T05:25:25;21.92;;;9.82;;
43042;SDS011;28667;50.758;6.096;2023-09-12T05:27:55;16.45;;;9.15;;
43042;SDS011;28667;50.758;6.096;2023-09-12T05:30:22;20.17;;;10.73;;
43042;SDS011;28667;50.758;6.096;2023-09-12T05:32:47;18.02;;;8.98;;
43042;SDS011;28667;50.758;6.096;2023-09-12T05:35:13;18.25;;;9.20;;
43042;SDS011;28667;50.758;6.096;2023-09-12T05:37:39;19.45;;;8.88;;
43042;SDS011;28667;50.758;6.096;2023-09-12T05:40:05;15.85;;;7.95;;
43042;SDS011;28667;50.758;6.096;2023-09-12T05:42:31;13.43;;;7.18;;
43042;SDS011;28667;50.758;6.096;2023-09-12T05:44:58;10.93;;;6.68;;
43042;SDS011;28667;50.758;6.096;2023-09-12T05:47:24;14.10;;;7.30;;
43042;SDS011;28667;50.758;6.096;2023-09-12T05:49:49;17.90;;;8.10;;
43042;SDS011;28667;50.758;6.096;2023-09-12T05:52:15;11.77;;;6.35;;
43042;SDS011;28667;50.758;6.096;2023-09-12T05:54:41;14.45;;;6.28;;
43042;SDS011;28667;50.758;6.096;2023-09-12T05:57:07;14.95;;;7.50;;
43042;SDS011;28667;50.758;6.096;2023-09-12T05:59:37;14.93;;;7.82;;
43042;SDS011;28667;50.758;6.096;2023-09-12T06:02:05;10.55;;;6.70;;
43042;SDS011;28667;50.758;6.096;2023-09-12T06:04:32;15.80;;;7.10;;
43042;SDS011;28667;50.758;6.096;2023-09-12T06:06:57;14.57;;;7.25;;
43042;SDS011;28667;50.758;6.096;2023-09-12T06:09:24;12.82;;;7.28;;
43042;SDS011;28667;50.758;6.096;2023-09-12T06:11:50;11.15;;;7.07;;
43042;SDS011;28667;50.758;6.096;2023-09-12T06:14:16;11.73;;;5.90;;
43042;SDS011;28667;50.758;6.096;2023-09-12T06:16:41;13.10;;;5.93;;
43042;SDS011;28667;50.758;6.096;2023-09-12T06:19:07;10.60;;;6.03;;
43042;SDS011;28667;50.758;6.096;2023-09-12T06:21:33;11.35;;;6.13;;
43042;SDS011;28667;50.758;6.096;2023-09-12T06:26:41;14.80;;;6.60;;
43042;SDS011;28667;50.758;6.096;2023-09-12T06:29:07;16.33;;;7.85;;
43042;SDS011;28667;50.758;6.096;2023-09-12T06:31:33;12.40;;;7.43;;
43042;SDS011;28667;50.758;6.096;2023-09-12T06:34:00;17.88;;;9.15;;
43042;SDS011;28667;50.758;6.096;2023-09-12T06:36:27;13.25;;;6.97;;
43042;SDS011;28667;50.758;6.096;2023-09-12T06:38:56;8.73;;;4.72;;
43042;SDS011;28667;50.758;6.096;2023-09-12T06:41:22;10.90;;;6.30;;
43042;SDS011;28667;50.758;6.096;2023-09-12T06:43:48;12.82;;;6.97;;
43042;SDS011;28667;50.758;6.096;2023-09-12T06:46:14;11.75;;;6.97;;
43042;SDS011;28667;50.758;6.096;2023-09-12T06:48:42;13.73;;;8.18;;
43042;SDS011;28667;50.758;6.096;2023-09-12T06:51:09;14.10;;;7.28;;
43042;SDS011;28667;50.758;6.096;2023-09-12T06:53:35;14.45;;;6.68;;
43042;SDS011;28667;50.758;6.096;2023-09-12T06:56:02;15.50;;;9.25;;
43042;SDS011;28667;50.758;6.096;2023-09-12T06:58:29;16.90;;;8.55;;
43042;SDS011;28667;50.758;6.096;2023-09-12T07:00:55;19.67;;;10.07;;
43042;SDS011;28667;50.758;6.096;2023-09-12T07:03:20;20.83;;;9.40;;
43042;SDS011;28667;50.758;6.096;2023-09-12T07:05:46;15.27;;;7.28;;
43042;SDS011;28667;50.758;6.096;2023-09-12T07:08:13;16.38;;;7.75;;
43042;SDS011;28667;50.758;6.096;2023-09-12T07:10:45;14.68;;;7.72;;
43042;SDS011;28667;50.758;6.096;2023-09-12T07:13:11;17.23;;;8.80;;
43042;SDS011;28667;50.758;6.096;2023-09-12T07:15:37;8.73;;;5.70;;
43042;SDS011;28667;50.758;6.096;2023-09-12T07:18:03;12.75;;;6.95;;
43042;SDS011;28667;50.758;6.096;2023-09-12T07:20:31;11.13;;;6.50;;
43042;SDS011;28667;50.758;6.096;2023-09-12T07:22:58;13.40;;;7.22;;
43042;SDS011;28667;50.758;6.096;2023-09-12T07:25:24;12.18;;;7.10;;
43042;SDS011;28667;50.758;6.096;2023-09-12T07:27:50;10.25;;;6.28;;
43042;SDS011;28667;50.758;6.096;2023-09-12T07:30:16;11.60;;;6.53;;
43042;SDS011;28667;50.758;6.096;2023-09-12T07:32:42;17.70;;;9.70;;
43042;SDS011;28667;50.758;6.096;2023-09-12T07:35:08;12.98;;;7.47;;
43042;SDS011;28667;50.758;6.096;2023-09-12T07:37:34;15.95;;;8.88;;
43042;SDS011;28667;50.758;6.096;2023-09-12T07:40:00;9.50;;;5.95;;
43042;SDS011;28667;50.758;6.096;2023-09-12T07:42:26;13.63;;;7.35;;
43042;SDS011;28667;50.758;6.096;2023-09-12T07:44:51;11.05;;;6.30;;
43042;SDS011;28667;50.758;6.096;2023-09-12T07:47:17;9.18;;;5.43;;
43042;SDS011;28667;50.758;6.096;2023-09-12T07:49:43;12.23;;;6.78;;
43042;SDS011;28667;50.758;6.096;2023-09-12T07:52:09;16.85;;;8.18;;
43042;SDS011;28667;50.758;6.096;2023-09-12T07:54:35;10.75;;;6.43;;
43042;SDS011;28667;50.758;6.096;2023-09-12T07:57:02;6.95;;;4.43;;
43042;SDS011;28667;50.758;6.096;2023-09-12T07:59:28;10.38;;;4.90;;
43042;SDS011;28667;50.758;6.096;2023-09-12T08:01:54;13.32;;;6.85;;
43042;SDS011;28667;50.758;6.096;2023-09-12T08:04:19;13.73;;;5.78;;
43042;SDS011;28667;50.758;6.096;2023-09-12T08:06:45;8.23;;;4.88;;
43042;SDS011;28667;50.758;6.096;2023-09-12T08:09:11;8.93;;;5.35;;
43042;SDS011;28667;50.758;6.096;2023-09-12T08:11:36;8.63;;;5.97;;
43042;SDS011;28667;50.758;6.096;2023-09-12T08:14:02;15.70;;;6.10;;
43042;SDS011;28667;50.758;6.096;2023-09-12T08:16:28;10.15;;;5.22;;
43042;SDS011;28667;50.758;6.096;2023-09-12T08:18:56;6.05;;;3.45;;
43042;SDS011;28667;50.758;6.096;2023-09-12T08:21:21;9.02;;;4.38;;
43042;SDS011;28667;50.758;6.096;2023-09-12T08:23:47;7.30;;;4.20;;
43042;SDS011;28667;50.758;6.096;2023-09-12T08:26:13;7.55;;;4.43;;
43042;SDS011;28667;50.758;6.096;2023-09-12T08:28:39;13.57;;;7.07;;
43042;SDS011;28667;50.758;6.096;2023-09-12T08:31:05;12.90;;;8.95;;
43042;SDS011;28667;50.758;6.096;2023-09-12T08:33:31;15.93;;;9.27;;
43042;SDS011;28667;50.758;6.096;2023-09-12T08:35:57;14.68;;;8.15;;
43042;SDS011;28667;50.758;6.096;2023-09-12T08:38:22;16.00;;;9.70;;
43042;SDS011;28667;50.758;6.096;2023-09-12T08:40:49;13.20;;;6.53;;
43042;SDS011;28667;50.758;6.096;2023-09-12T08:43:15;12.15;;;8.20;;
43042;SDS011;28667;50.758;6.096;2023-09-12T08:45:42;17.05;;;9.07;;
43042;SDS011;28667;50.758;6.096;2023-09-12T08:48:11;15.20;;;9.52;;
43042;SDS011;28667;50.758;6.096;2023-09-12T08:50:38;13.05;;;8.05;;
43042;SDS011;28667;50.758;6.096;2023-09-12T08:53:04;11.50;;;7.10;;
43042;SDS011;28667;50.758;6.096;2023-09-12T08:55:31;13.40;;;8.77;;
43042;SDS011;28667;50.758;6.096;2023-09-12T08:58:03;17.48;;;8.80;;
43042;SDS011;28667;50.758;6.096;2023-09-12T09:00:30;10.93;;;6.57;;
43042;SDS011;28667;50.758;6.096;2023-09-12T09:02:56;10.13;;;6.35;;
43042;SDS011;28667;50.758;6.096;2023-09-12T09:05:22;7.88;;;5.57;;
43042;SDS011;28667;50.758;6.096;2023-09-12T09:07:49;15.50;;;8.35;;
43042;SDS011;28667;50.758;6.096;2023-09-12T09:10:17;18.52;;;10.43;;
43042;SDS011;28667;50.758;6.096;2023-09-12T09:12:44;10.63;;;7.20;;
43042;SDS011;28667;50.758;6.096;2023-09-12T09:17:53;11.30;;;7.22;;
43042;SDS011;28667;50.758;6.096;2023-09-12T09:20:33;8.35;;;6.15;;
43042;SDS011;28667;50.758;6.096;2023-09-12T09:23:01;12.63;;;8.13;;
43042;SDS011;28667;50.758;6.096;2023-09-12T09:25:31;12.57;;;8.07;;
43042;SDS011;28667;50.758;6.096;2023-09-12T09:27:58;10.13;;;5.93;;
43042;SDS011;28667;50.758;6.096;2023-09-12T09:30:43;10.32;;;7.57;;
43042;SDS011;28667;50.758;6.096;2023-09-12T09:33:10;11.30;;;6.93;;
43042;SDS011;28667;50.758;6.096;2023-09-12T09:35:37;9.80;;;6.38;;
43042;SDS011;28667;50.758;6.096;2023-09-12T09:38:06;6.10;;;4.65;;
43042;SDS011;28667;50.758;6.096;2023-09-12T09:40:33;5.18;;;4.68;;
43042;SDS011;28667;50.758;6.096;2023-09-12T09:43:00;6.65;;;5.55;;
43042;SDS011;28667;50.758;6.096;2023-09-12T09:45:28;9.13;;;5.43;;
43042;SDS011;28667;50.758;6.096;2023-09-12T09:48:37;6.35;;;4.93;;
43042;SDS011;28667;50.758;6.096;2023-09-12T09:50:47;4.97;;;4.38;;
43042;SDS011;28667;50.758;6.096;2023-09-12T09:53:13;5.53;;;3.55;;
43042;SDS011;28667;50.758;6.096;2023-09-12T09:55:39;5.95;;;3.65;;
43042;SDS011;28667;50.758;6.096;2023-09-12T09:58:05;8.48;;;3.78;;
43042;SDS011;28667;50.758;6.096;2023-09-12T10:00:33;5.00;;;3.30;;
43042;SDS011;28667;50.758;6.096;2023-09-12T10:03:02;4.90;;;3.60;;
43042;SDS011;28667;50.758;6.096;2023-09-12T10:05:30;4.55;;;4.13;;
43042;SDS011;28667;50.758;6.096;2023-09-12T10:07:57;4.43;;;3.70;;
43042;SDS011;28667;50.758;6.096;2023-09-12T10:10:25;4.53;;;4.00;;
43042;SDS011;28667;50.758;6.096;2023-09-12T10:12:57;6.82;;;4.40;;
43042;SDS011;28667;50.758;6.096;2023-09-12T10:15:25;4.50;;;3.30;;
43042;SDS011;28667;50.758;6.096;2023-09-12T10:17:58;6.03;;;3.53;;
43042;SDS011;28667;50.758;6.096;2023-09-12T10:20:42;6.85;;;4.78;;
43042;SDS011;28667;50.758;6.096;2023-09-12T10:23:20;6.78;;;5.57;;
43042;SDS011;28667;50.758;6.096;2023-09-12T10:25:52;7.95;;;5.55;;
43042;SDS011;28667;50.758;6.096;2023-09-12T10:28:19;6.47;;;4.88;;
43042;SDS011;28667;50.758;6.096;2023-09-12T10:30:46;5.45;;;3.75;;
43042;SDS011;28667;50.758;6.096;2023-09-12T10:33:14;6.68;;;4.70;;
43042;SDS011;28667;50.758;6.096;2023-09-12T10:35:42;3.78;;;3.42;;
43042;SDS011;28667;50.758;6.096;2023-09-12T10:38:10;5.03;;;3.78;;
43042;SDS011;28667;50.758;6.096;2023-09-12T10:40:39;11.15;;;6.50;;
43042;SDS011;28667;50.758;6.096;2023-09-12T10:43:05;11.98;;;6.18;;
43042;SDS011;28667;50.758;6.096;2023-09-12T10:45:35;11.90;;;5.90;;
43042;SDS011;28667;50.758;6.096;2023-09-12T10:48:02;6.93;;;5.72;;
43042;SDS011;28667;50.758;6.096;2023-09-12T10:50:28;7.60;;;6.43;;
43042;SDS011;28667;50.758;6.096;2023-09-12T10:52:54;7.20;;;5.50;;
43042;SDS011;28667;50.758;6.096;2023-09-12T10:55:21;12.70;;;7.43;;
43042;SDS011;28667;50.758;6.096;2023-09-12T10:58:07;7.53;;;5.60;;
43042;SDS011;28667;50.758;6.096;2023-09-12T11:00:35;7.57;;;4.78;;
43042;SDS011;28667;50.758;6.096;2023-09-12T11:05:53;5.47;;;4.95;;
43042;SDS011;28667;50.758;6.096;2023-09-12T11:08:20;8.65;;;6.25;;
43042;SDS011;28667;50.758;6.096;2023-09-12T11:14:03;7.25;;;5.60;;
43042;SDS011;28667;50.758;6.096;2023-09-12T11:16:30;9.45;;;8.45;;
43042;SDS011;28667;50.758;6.096;2023-09-12T11:21:41;11.23;;;9.05;;
43042;SDS011;28667;50.758;6.096;2023-09-12T11:24:10;10.45;;;6.88;;
43042;SDS011;28667;50.758;6.096;2023-09-12T11:26:51;5.57;;;4.68;;
43042;SDS011;28667;50.758;6.096;2023-09-12T11:29:19;9.50;;;7.93;;
43042;SDS011;28667;50.758;6.096;2023-09-12T11:31:54;9.55;;;6.38;;
43042;SDS011;28667;50.758;6.096;2023-09-12T11:34:24;6.57;;;5.68;;
43042;SDS011;28667;50.758;6.096;2023-09-12T11:36:57;12.00;;;6.32;;
43042;SDS011;28667;50.758;6.096;2023-09-12T11:39:29;14.50;;;7.68;;
43042;SDS011;28667;50.758;6.096;2023-09-12T11:41:57;5.90;;;4.50;;
43042;SDS011;28667;50.758;6.096;2023-09-12T11:44:24;6.80;;;5.55;;
43042;SDS011;28667;50.758;6.096;2023-09-12T11:46:51;9.75;;;5.80;;
43042;SDS011;28667;50.758;6.096;2023-09-12T11:49:18;4.30;;;3.33;;
43042;SDS011;28667;50.758;6.096;2023-09-12T11:54:17;10.55;;;5.72;;
43042;SDS011;28667;50.758;6.096;2023-09-12T11:56:48;7.25;;;6.13;;
43042;SDS011;28667;50.758;6.096;2023-09-12T11:59:15;6.35;;;4.05;;
43042;SDS011;28667;50.758;6.096;2023-09-12T12:01:44;11.00;;;6.15;;
43042;SDS011;28667;50.758;6.096;2023-09-12T12:04:11;4.82;;;4.32;;
43042;SDS011;28667;50.758;6.096;2023-09-12T12:06:37;6.05;;;3.22;;
43042;SDS011;28667;50.758;6.096;2023-09-12T12:09:03;10.27;;;6.00;;
43042;SDS011;28667;50.758;6.096;2023-09-12T12:11:30;4.18;;;3.60;;
43042;SDS011;28667;50.758;6.096;2023-09-12T12:13:56;7.07;;;4.05;;
43042;SDS011;28667;50.758;6.096;2023-09-12T12:16:22;7.28;;;5.78;;
43042;SDS011;28667;50.758;6.096;2023-09-12T12:18:50;5.30;;;3.53;;
43042;SDS011;28667;50.758;6.096;2023-09-12T12:21:20;4.93;;;3.30;;
43042;SDS011;28667;50.758;6.096;2023-09-12T12:23:46;6.10;;;4.72;;
43042;SDS011;28667;50.758;6.096;2023-09-12T12:26:11;6.75;;;4.90;;
43042;SDS011;28667;50.758;6.096;2023-09-12T12:28:37;3.63;;;3.13;;
43042;SDS011;28667;50.758;6.096;2023-09-12T12:31:03;6.47;;;4.80;;
43042;SDS011;28667;50.758;6.096;2023-09-12T12:33:30;7.07;;;5.03;;
43042;SDS011;28667;50.758;6.096;2023-09-12T12:35:59;5.97;;;4.65;;
43042;SDS011;28667;50.758;6.096;2023-09-12T12:38:26;8.65;;;5.50;;
43042;SDS011;28667;50.758;6.096;2023-09-12T12:40:51;4.93;;;4.40;;
43042;SDS011;28667;50.758;6.096;2023-09-12T12:43:17;6.82;;;4.72;;
43042;SDS011;28667;50.758;6.096;2023-09-12T12:45:53;4.55;;;2.80;;
43042;SDS011;28667;50.758;6.096;2023-09-12T12:48:33;3.90;;;3.25;;
43042;SDS011;28667;50.758;6.096;2023-09-12T12:51:11;6.95;;;6.25;;
43042;SDS011;28667;50.758;6.096;2023-09-12T12:54:24;4.85;;;4.22;;
43042;SDS011;28667;50.758;6.096;2023-09-12T12:56:33;8.45;;;6.28;;
43042;SDS011;28667;50.758;6.096;2023-09-12T12:59:00;6.65;;;5.35;;
43042;SDS011;28667;50.758;6.096;2023-09-12T13:01:32;4.10;;;3.70;;
43042;SDS011;28667;50.758;6.096;2023-09-12T13:03:59;5.68;;;4.38;;
43042;SDS011;28667;50.758;6.096;2023-09-12T13:06:25;6.13;;;4.03;;
43042;SDS011;28667;50.758;6.096;2023-09-12T13:08:52;5.70;;;3.40;;
43042;SDS011;28667;50.758;6.096;2023-09-12T13:11:18;4.18;;;2.80;;
43042;SDS011;28667;50.758;6.096;2023-09-12T13:13:44;2.78;;;2.58;;
43042;SDS011;28667;50.758;6.096;2023-09-12T13:16:12;5.32;;;4.20;;
43042;SDS011;28667;50.758;6.096;2023-09-12T13:18:39;4.70;;;3.53;;
43042;SDS011;28667;50.758;6.096;2023-09-12T13:21:05;4.45;;;3.00;;
43042;SDS011;28667;50.758;6.096;2023-09-12T13:23:33;4.03;;;3.47;;
43042;SDS011;28667;50.758;6.096;2023-09-12T13:26:00;6.80;;;4.35;;
43042;SDS011;28667;50.758;6.096;2023-09-12T13:28:26;6.82;;;4.60;;
43042;SDS011;28667;50.758;6.096;2023-09-12T13:30:52;4.57;;;3.75;;
43042;SDS011;28667;50.758;6.096;2023-09-12T13:33:18;4.18;;;2.53;;
43042;SDS011;28667;50.758;6.096;2023-09-12T13:35:44;4.70;;;3.42;;
43042;SDS011;28667;50.758;6.096;2023-09-12T13:38:11;4.07;;;2.90;;
43042;SDS011;28667;50.758;6.096;2023-09-12T13:40:37;3.10;;;2.38;;
43042;SDS011;28667;50.758;6.096;2023-09-12T13:43:04;2.70;;;2.50;;
43042;SDS011;28667;50.758;6.096;2023-09-12T13:45:33;5.55;;;3.88;;
43042;SDS011;28667;50.758;6.096;2023-09-12T13:48:00;3.83;;;2.53;;
43042;SDS011;28667;50.758;6.096;2023-09-12T13:50:26;3.58;;;3.28;;
43042;SDS011;28667;50.758;6.096;2023-09-12T13:52:58;3.10;;;2.75;;
43042;SDS011;28667;50.758;6.096;2023-09-12T13:55:24;2.75;;;2.38;;
43042;SDS011;28667;50.758;6.096;2023-09-12T13:57:51;4.60;;;3.60;;
43042;SDS011;28667;50.758;6.096;2023-09-12T14:00:16;4.45;;;2.80;;
43042;SDS011;28667;50.758;6.096;2023-09-12T14:02:42;3.65;;;2.53;;
43042;SDS011;28667;50.758;6.096;2023-09-12T14:05:09;5.95;;;3.35;;
43042;SDS011;28667;50.758;6.096;2023-09-12T14:07:37;3.40;;;2.50;;
43042;SDS011;28667;50.758;6.096;2023-09-12T14:10:05;4.10;;;3.03;;
43042;SDS011;28667;50.758;6.096;2023-09-12T14:12:32;5.43;;;3.50;;
43042;SDS011;28667;50.758;6.096;2023-09-12T14:14:57;4.30;;;3.00;;
43042;SDS011;28667;50.758;6.096;2023-09-12T14:17:23;5.55;;;3.00;;
43042;SDS011;28667;50.758;6.096;2023-09-12T14:19:49;5.63;;;3.63;;
43042;SDS011;28667;50.758;6.096;2023-09-12T14:22:15;3.20;;;2.35;;
43042;SDS011;28667;50.758;6.096;2023-09-12T14:24:40;4.47;;;3.45;;
43042;SDS011;28667;50.758;6.096;2023-09-12T14:27:06;3.80;;;2.80;;
43042;SDS011;28667;50.758;6.096;2023-09-12T14:29:32;4.18;;;3.38;;
43042;SDS011;28667;50.758;6.096;2023-09-12T14:31:57;3.42;;;2.90;;
43042;SDS011;28667;50.758;6.096;2023-09-12T14:34:23;4.40;;;3.15;;
43042;SDS011;28667;50.758;6.096;2023-09-12T14:36:53;5.15;;;3.13;;
43042;SDS011;28667;50.758;6.096;2023-09-12T14:39:20;3.15;;;2.67;;
43042;SDS011;28667;50.758;6.096;2023-09-12T14:41:46;3.15;;;2.42;;
43042;SDS011;28667;50.758;6.096;2023-09-12T14:44:20;3.25;;;2.47;;
43042;SDS011;28667;50.758;6.096;2023-09-12T14:46:46;4.53;;;3.40;;
43042;SDS011;28667;50.758;6.096;2023-09-12T14:49:12;3.10;;;2.80;;
43042;SDS011;28667;50.758;6.096;2023-09-12T14:51:38;3.40;;;3.10;;
43042;SDS011;28667;50.758;6.096;2023-09-12T14:54:04;4.63;;;3.25;;
43042;SDS011;28667;50.758;6.096;2023-09-12T14:56:31;2.75;;;2.13;;
43042;SDS011;28667;50.758;6.096;2023-09-12T14:58:58;4.07;;;3.00;;
43042;SDS011;28667;50.758;6.096;2023-09-12T15:01:24;3.15;;;2.38;;
43042;SDS011;28667;50.758;6.096;2023-09-12T15:03:50;5.25;;;2.85;;
43042;SDS011;28667;50.758;6.096;2023-09-12T15:06:16;4.72;;;3.10;;
43042;SDS011;28667;50.758;6.096;2023-09-12T15:08:42;2.85;;;2.50;;